Date,TemperatureHighF,TemperatureAvgF,TemperatureLowF,DewpointHighF,DewpointAvgF,DewpointLowF,HumidityHigh,HumidityAvg,HumidityLow,PressureMaxIn,PressureMinIn,WindSpeedMaxMPH,WindSpeedAvgMPH,GustSpeedMaxMPH,PrecipitationSumIn
2012-12-1,39.6,35.1,31.7,38.0,30.8,23.9,94,84,71,30.54,30.41,7,5,17,0.00
2012-12-2,55.9,45.9,38.6,49.7,43.6,37.2,97,92,79,30.41,30.06,73,5,78,0.01
2012-12-3,57.6,50.1,43.9,48.9,44.9,39.8,98,83,60,30.25,30.04,80,29,131,0.00
2012-12-4,56.0,47.3,36.3,55.4,46.1,34.9,98,96,84,30.28,29.98,101,30,136,0.03
2012-12-5,55.4,47.7,33.7,54.8,39.1,21.9,98,74,52,30.12,29.86,92,25,131,0.03
2012-12-6,40.6,32.8,27.1,24.9,19.7,16.7,77,59,43,30.30,30.11,8,2,34,0.00
2012-12-7,46.0,37.9,28.1,44.2,34.1,22.1,98,86,73,30.26,30.00,98,14,131,0.09
2012-12-8,51.1,47.2,44.8,50.7,46.6,44.0,99,98,95,30.00,29.81,128,30,142,0.23
2012-12-9,48.5,44.7,40.0,47.2,41.0,35.9,98,87,66,30.22,29.95,80,12,118,0.11
2012-12-10,58.0,53.3,43.9,57.7,52.9,43.4,99,99,98,30.03,29.50,96,68,142,0.88
2012-12-11,55.1,43.4,34.7,54.8,35.9,25.0,99,76,54,30.14,29.51,76,12,131,0.03
2012-12-12,41.1,34.9,29.7,25.9,24.8,22.4,81,67,48,30.41,30.14,8,3,20,0.00
2012-12-13,44.3,35.8,29.2,29.1,26.9,25.0,86,71,47,30.43,30.28,4,1,10,0.00
2012-12-14,46.8,38.7,32.9,33.6,28.7,25.3,84,67,49,30.28,30.06,11,4,27,0.00
2012-12-15,46.9,37.6,33.2,31.7,29.6,27.9,84,73,51,30.27,30.16,7,1,11,0.00
2012-12-16,38.9,36.8,34.8,38.1,33.6,29.3,97,88,79,30.24,29.94,5,3,20,0.13
2012-12-17,43.0,40.9,37.8,42.5,40.3,37.0,98,98,97,29.94,29.66,96,27,143,0.20
2012-12-18,47.8,44.5,40.2,47.5,43.8,39.7,99,98,86,29.67,29.41,4,1,11,0.65
2012-12-19,46.0,41.9,37.6,39.4,33.4,29.8,88,72,60,30.02,29.47,8,4,15,0.00
2012-12-20,44.9,38.2,32.6,36.6,31.5,27.4,93,77,61,30.17,29.92,4,1,8,0.01
2012-12-21,54.8,43.3,37.8,54.2,40.4,30.1,98,90,73,29.95,29.06,9,4,18,0.51
2012-12-22,38.3,35.8,33.3,33.1,26.6,20.1,92,70,51,29.68,29.24,9,4,18,0.01
2012-12-23,40.8,36.0,32.8,27.6,24.0,21.0,74,62,53,29.88,29.68,4,2,11,0.00
2012-12-24,38.3,34.1,30.1,28.1,22.6,20.6,92,63,53,30.05,29.86,4,1,9,0.00
2012-12-25,35.8,29.6,28.4,33.8,19.9,-99.9,97,84,78,30.20,29.89,3,1,9,0.14
2012-12-26,35.0,30.0,22.9,33.7,24.6,16.6,97,80,70,30.25,29.65,8,3,13,0.05
2012-12-27,43.5,37.7,31.1,43.0,36.0,26.5,98,94,83,29.66,29.20,7,4,22,0.65
2012-12-28,36.5,30.4,26.3,26.7,23.5,19.8,87,76,63,30.02,29.66,5,2,13,0.00
2012-12-29,33.5,29.2,25.2,31.2,27.1,22.4,97,92,85,30.00,29.35,4,1,9,0.00
2012-12-30,31.0,27.1,22.3,29.6,20.1,11.3,97,76,53,30.03,29.41,6,2,16,0.01
2012-12-31,36.1,29.3,19.2,27.5,20.3,10.7,76,69,63,30.08,29.80,5,2,13,0.03